createdAt,value
2023-10-16T00:01:40.541Z,6.20
2023-10-16T00:04:08.099Z,6.21
2023-10-16T00:06:36.232Z,6.23
2023-10-16T00:09:16.295Z,6.21
2023-10-16T00:11:44.114Z,6.21
2023-10-16T00:14:25.191Z,6.21
2023-10-16T00:16:53.128Z,6.22
2023-10-16T00:19:20.240Z,6.20
2023-10-16T00:21:47.716Z,6.19
2023-10-16T00:24:15.210Z,6.17
2023-10-16T00:26:50.494Z,6.13
2023-10-16T00:29:18.790Z,6.13
2023-10-16T00:31:52.751Z,6.13
2023-10-16T00:34:23.805Z,6.10
2023-10-16T00:36:56.075Z,6.07
2023-10-16T00:39:27.233Z,6.08
2023-10-16T00:41:54.409Z,6.05
2023-10-16T00:44:23.824Z,6.16
2023-10-16T00:46:54.240Z,6.12
2023-10-16T00:49:24.930Z,6.10
2023-10-16T00:51:52.301Z,6.04
2023-10-16T00:54:31.233Z,6.03
2023-10-16T00:56:59.525Z,6.03
2023-10-16T00:59:29.754Z,6.04
2023-10-16T01:02:08.143Z,6.02
2023-10-16T01:04:51.776Z,6.04
2023-10-16T01:07:20.727Z,5.99
2023-10-16T01:09:53.906Z,5.98
2023-10-16T01:12:23.475Z,5.98
2023-10-16T01:14:50.871Z,5.97
2023-10-16T01:17:30.731Z,5.98
2023-10-16T01:19:58.293Z,5.98
2023-10-16T01:22:30.976Z,6.00
2023-10-16T01:25:01.315Z,6.03
2023-10-16T01:27:32.112Z,6.02
2023-10-16T01:30:03.134Z,6.02
2023-10-16T01:32:35.056Z,6.02
2023-10-16T01:35:02.823Z,6.04
2023-10-16T01:37:33.643Z,6.07
2023-10-16T01:40:17.789Z,6.03
2023-10-16T01:42:46.965Z,6.01
2023-10-16T01:45:16.900Z,5.95
2023-10-16T01:47:44.270Z,5.96
2023-10-16T01:50:22.992Z,5.95
2023-10-16T01:52:51.333Z,5.95
2023-10-16T01:55:20.717Z,5.93
2023-10-16T01:57:49.409Z,5.96
2023-10-16T02:00:25.871Z,5.93
2023-10-16T02:02:53.680Z,5.91
2023-10-16T02:05:21.060Z,5.96
2023-10-16T02:07:48.895Z,5.95
2023-10-16T02:10:16.707Z,5.94
2023-10-16T02:12:43.852Z,5.94
2023-10-16T02:15:11.918Z,5.92
2023-10-16T02:17:42.236Z,5.94
2023-10-16T02:20:13.069Z,5.90
2023-10-16T02:22:43.277Z,5.93
2023-10-16T02:25:12.554Z,5.94
2023-10-16T02:27:43.022Z,5.94
2023-10-16T02:30:26.527Z,5.93
2023-10-16T02:33:01.063Z,5.90
2023-10-16T02:35:28.955Z,5.86
2023-10-16T02:37:59.131Z,5.84
2023-10-16T02:40:26.713Z,5.85
2023-10-16T02:42:57.919Z,5.88
2023-10-16T02:45:26.876Z,5.86
2023-10-16T02:47:54.726Z,5.82
2023-10-16T02:50:22.089Z,5.88
2023-10-16T02:52:49.830Z,5.88
2023-10-16T02:55:17.185Z,5.90
2023-10-16T02:57:44.379Z,5.89
2023-10-16T03:00:36.538Z,5.87
2023-10-16T03:03:07.168Z,5.85
2023-10-16T03:05:34.450Z,5.83
2023-10-16T03:08:02.120Z,5.86
2023-10-16T03:10:32.503Z,5.84
2023-10-16T03:13:07.144Z,5.79
2023-10-16T03:15:47.135Z,5.78
2023-10-16T03:18:18.894Z,5.80
2023-10-16T03:20:47.083Z,5.81
2023-10-16T03:23:15.609Z,5.83
2023-10-16T03:25:43.023Z,5.82
2023-10-16T03:28:10.766Z,5.83
2023-10-16T03:30:41.312Z,5.84
2023-10-16T03:33:09.181Z,5.86
2023-10-16T03:35:51.420Z,5.85
2023-10-16T03:38:35.590Z,5.86
2023-10-16T03:41:04.890Z,5.85
2023-10-16T03:43:31.910Z,5.83
2023-10-16T03:45:59.750Z,5.86
2023-10-16T03:48:27.277Z,5.85
2023-10-16T03:50:57.557Z,5.80
2023-10-16T03:53:25.436Z,5.78
2023-10-16T03:55:52.879Z,5.75
2023-10-16T03:58:19.823Z,5.77
2023-10-16T04:00:58.303Z,5.78
2023-10-16T04:03:28.317Z,5.80
2023-10-16T04:05:55.789Z,5.79
2023-10-16T04:08:23.407Z,5.78
2023-10-16T04:10:51.248Z,5.81
2023-10-16T04:13:20.700Z,5.78
2023-10-16T04:16:06.149Z,5.73
2023-10-16T04:18:35.836Z,5.72
2023-10-16T04:21:16.104Z,5.73
2023-10-16T04:23:48.861Z,5.75
2023-10-16T04:26:28.928Z,5.70
2023-10-16T04:29:06.369Z,5.69
2023-10-16T04:31:46.917Z,5.65
2023-10-16T04:34:28.621Z,5.69
2023-10-16T04:37:15.879Z,5.71
2023-10-16T04:40:11.148Z,5.71
2023-10-16T04:43:10.074Z,5.77
2023-10-16T04:45:40.549Z,5.79
2023-10-16T04:48:08.662Z,5.81
2023-10-16T04:53:07.630Z,5.83
2023-10-16T04:55:47.383Z,5.79
2023-10-16T04:58:20.081Z,5.83
2023-10-16T05:01:18.732Z,5.85
2023-10-16T05:04:05.865Z,5.82
2023-10-16T05:06:33.145Z,5.83
2023-10-16T05:09:18.798Z,5.86
2023-10-16T05:12:06.964Z,5.86
2023-10-16T05:14:43.542Z,5.89
2023-10-16T05:17:27.336Z,5.89
2023-10-16T05:19:54.931Z,5.84
2023-10-16T05:22:37.266Z,5.85
2023-10-16T05:25:23.833Z,5.80
2023-10-16T05:28:10.254Z,5.80
2023-10-16T05:30:55.894Z,5.80
2023-10-16T05:33:43.152Z,5.76
2023-10-16T05:36:29.121Z,5.80
2023-10-16T05:39:14.614Z,5.80
2023-10-16T05:42:01.624Z,5.83
2023-10-16T05:44:47.455Z,5.90
2023-10-16T05:47:33.020Z,5.92
2023-10-16T05:50:19.347Z,5.91
2023-10-16T05:53:05.014Z,5.90
2023-10-16T05:55:54.229Z,5.88
2023-10-16T05:58:39.929Z,5.84
2023-10-16T06:01:26.840Z,5.86
2023-10-16T06:04:12.715Z,5.87
2023-10-16T06:07:00.760Z,5.87
2023-10-16T06:09:53.259Z,5.87
2023-10-16T06:12:39.627Z,5.88
2023-10-16T06:15:09.098Z,5.87
2023-10-16T06:17:39.479Z,5.82
2023-10-16T06:20:10.816Z,5.78
2023-10-16T06:22:38.132Z,5.76
2023-10-16T06:25:11.525Z,5.77
2023-10-16T06:27:43.049Z,5.76
2023-10-16T06:30:20.050Z,5.78
2023-10-16T06:32:50.840Z,5.77
2023-10-16T06:35:18.320Z,5.78
2023-10-16T06:37:53.234Z,5.82
2023-10-16T06:40:26.347Z,5.82
2023-10-16T06:43:12.528Z,5.77
2023-10-16T06:46:04.484Z,5.79
2023-10-16T06:48:42.002Z,5.80
2023-10-16T06:51:16.913Z,5.77
2023-10-16T06:53:47.235Z,5.78
2023-10-16T06:56:28.785Z,5.78
2023-10-16T06:58:58.057Z,5.80
2023-10-16T07:01:27.321Z,5.80
2023-10-16T07:03:58.447Z,5.78
2023-10-16T07:06:33.723Z,5.77
2023-10-16T07:09:07.417Z,5.75
2023-10-16T07:11:35.047Z,5.74
2023-10-16T07:14:02.184Z,5.64
2023-10-16T07:16:30.568Z,5.65
2023-10-16T07:18:59.081Z,5.62
2023-10-16T07:21:26.618Z,5.62
2023-10-16T07:23:56.523Z,5.61
2023-10-16T07:26:26.210Z,5.58
2023-10-16T07:28:53.663Z,5.57
2023-10-16T07:31:21.154Z,5.62
2023-10-16T07:34:01.390Z,5.62
2023-10-16T07:36:28.895Z,5.61
2023-10-16T07:38:56.023Z,5.62
2023-10-16T07:41:25.355Z,5.59
2023-10-16T07:43:58.832Z,5.60
2023-10-16T07:46:31.789Z,5.57
2023-10-16T07:49:04.502Z,5.53
2023-10-16T07:51:31.953Z,5.50
2023-10-16T07:54:01.401Z,5.50
2023-10-16T07:56:33.745Z,5.55
2023-10-16T07:59:10.396Z,5.53
2023-10-16T08:01:59.886Z,5.55
2023-10-16T08:04:27.213Z,5.56
2023-10-16T08:07:16.712Z,5.47
2023-10-16T08:09:59.106Z,5.41
2023-10-16T08:12:47.116Z,5.46
2023-10-16T08:15:23.996Z,5.40
2023-10-16T08:17:53.413Z,5.34
2023-10-16T08:20:20.976Z,5.26
2023-10-16T08:22:50.294Z,5.16
2023-10-16T08:25:32.663Z,5.05
2023-10-16T08:28:19.587Z,4.98
2023-10-16T08:30:50.214Z,5.03
2023-10-16T08:33:17.901Z,5.00
2023-10-16T08:35:46.650Z,5.04
2023-10-16T08:38:27.369Z,5.08
2023-10-16T08:41:08.599Z,5.14
2023-10-16T08:44:12.418Z,5.16
2023-10-16T08:46:46.701Z,5.01
2023-10-16T08:49:14.367Z,4.95
2023-10-16T08:51:41.757Z,4.95
2023-10-16T08:54:38.475Z,4.93
2023-10-16T08:57:11.999Z,4.92
2023-10-16T08:59:43.859Z,4.92
2023-10-16T09:02:15.496Z,4.91
2023-10-16T09:04:43.247Z,4.86
2023-10-16T09:07:13.808Z,4.89
2023-10-16T09:09:42.602Z,4.82
2023-10-16T09:12:12.751Z,4.78
2023-10-16T09:14:42.529Z,4.78
2023-10-16T09:17:09.797Z,4.71
2023-10-16T09:19:58.658Z,4.72
2023-10-16T09:22:31.935Z,4.71
2023-10-16T09:25:00.718Z,4.82
2023-10-16T09:27:37.771Z,4.92
2023-10-16T09:30:16.190Z,4.94
2023-10-16T09:32:43.970Z,4.92
2023-10-16T09:35:15.445Z,4.84
2023-10-16T09:37:48.886Z,4.82
2023-10-16T09:40:41.555Z,4.88
2023-10-16T09:43:25.390Z,4.83
2023-10-16T09:46:12.930Z,4.87
2023-10-16T09:48:41.591Z,4.87
2023-10-16T09:51:10.576Z,4.82
2023-10-16T09:53:38.185Z,4.77
2023-10-16T09:56:07.447Z,4.76
2023-10-16T09:58:37.383Z,4.77
2023-10-16T10:01:11.138Z,4.78
2023-10-16T10:03:39.952Z,4.76
2023-10-16T10:06:13.831Z,4.77
2023-10-16T10:08:59.446Z,4.87
2023-10-16T10:12:16.206Z,4.86
2023-10-16T10:15:02.523Z,4.83
2023-10-16T10:17:35.047Z,4.83
2023-10-16T10:20:10.550Z,4.88
2023-10-16T10:22:39.438Z,4.91
2023-10-16T10:25:24.200Z,4.89
2023-10-16T10:28:15.600Z,4.81
2023-10-16T10:30:47.053Z,4.69
2023-10-16T10:33:35.713Z,4.65
2023-10-16T10:36:30.316Z,4.71
2023-10-16T10:39:28.659Z,4.77
2023-10-16T10:42:05.318Z,4.77
2023-10-16T10:44:42.445Z,4.85
2023-10-16T10:47:32.378Z,4.83
2023-10-16T10:50:02.196Z,4.81
2023-10-16T10:52:34.205Z,4.75
2023-10-16T10:55:15.867Z,4.73
2023-10-16T10:57:49.137Z,4.83
2023-10-16T11:00:30.013Z,4.90
2023-10-16T11:03:03.377Z,4.87
2023-10-16T11:05:32.749Z,5.00
2023-10-16T11:08:21.333Z,5.06
2023-10-16T11:10:48.820Z,5.03
2023-10-16T11:13:19.556Z,5.10
2023-10-16T11:15:54.621Z,5.09
2023-10-16T11:18:27.862Z,5.10
2023-10-16T11:21:06.123Z,5.14
2023-10-16T11:23:41.766Z,5.22
2023-10-16T11:26:15.160Z,5.27
2023-10-16T11:28:50.443Z,5.24
2023-10-16T11:31:39.513Z,5.22
2023-10-16T11:34:26.062Z,5.18
2023-10-16T11:36:58.495Z,5.17
2023-10-16T11:39:27.644Z,5.16
2023-10-16T11:41:55.402Z,5.18
2023-10-16T11:44:27.693Z,5.16
2023-10-16T11:46:55.294Z,5.13
2023-10-16T11:49:24.454Z,5.11
2023-10-16T11:51:55.400Z,5.09
2023-10-16T11:54:27.588Z,5.07
2023-10-16T11:57:01.079Z,5.08
2023-10-16T11:59:30.190Z,5.08
2023-10-16T12:02:04.113Z,5.15
2023-10-16T12:04:35.262Z,5.19
2023-10-16T12:07:06.422Z,5.11
2023-10-16T12:09:39.493Z,5.10
2023-10-16T12:12:14.480Z,5.11
2023-10-16T12:14:43.546Z,5.13
2023-10-16T12:17:15.267Z,5.14
2023-10-16T12:19:43.077Z,5.13
2023-10-16T12:22:16.966Z,5.08
2023-10-16T12:24:45.602Z,5.07
2023-10-16T12:27:17.214Z,5.09
2023-10-16T12:29:47.507Z,5.13
2023-10-16T12:32:15.102Z,5.16
2023-10-16T12:34:43.709Z,5.19
2023-10-16T12:37:12.941Z,5.24
2023-10-16T12:40:00.825Z,5.26
2023-10-16T12:42:30.663Z,5.30
2023-10-16T12:45:00.053Z,5.32
2023-10-16T12:47:43.876Z,5.31
2023-10-16T12:50:13.169Z,5.30
2023-10-16T12:52:43.818Z,5.27
2023-10-16T12:55:13.591Z,5.29
2023-10-16T12:57:45.412Z,5.27
2023-10-16T13:00:22.543Z,5.22
2023-10-16T13:02:52.685Z,5.19
2023-10-16T13:05:26.975Z,5.16
2023-10-16T13:07:57.897Z,5.20
2023-10-16T13:10:30.091Z,5.20
2023-10-16T13:12:59.380Z,5.19
2023-10-16T13:15:31.883Z,5.22
2023-10-16T13:18:02.878Z,5.22
2023-10-16T13:20:32.180Z,5.21
2023-10-16T13:23:01.379Z,5.19
2023-10-16T13:25:48.012Z,5.17
2023-10-16T13:28:15.656Z,5.19
2023-10-16T13:30:46.142Z,5.21
2023-10-16T13:33:13.723Z,5.19
2023-10-16T13:35:42.891Z,5.21
2023-10-16T13:38:11.065Z,5.21
2023-10-16T13:40:40.168Z,5.22
2023-10-16T13:43:12.322Z,5.21
2023-10-16T13:45:41.563Z,5.19
2023-10-16T13:48:11.497Z,5.16
2023-10-16T13:50:42.252Z,5.12
2023-10-16T13:53:12.964Z,5.11
2023-10-16T13:55:41.419Z,5.06
2023-10-16T13:58:10.226Z,5.05
2023-10-16T14:00:39.410Z,5.03
2023-10-16T14:03:11.733Z,5.02
2023-10-16T14:05:52.240Z,4.99
2023-10-16T14:08:32.223Z,5.00
2023-10-16T14:11:02.054Z,4.99
2023-10-16T14:13:30.110Z,5.01
2023-10-16T14:16:18.123Z,4.97
2023-10-16T14:18:46.025Z,4.95
2023-10-16T14:21:15.431Z,4.98
2023-10-16T14:26:35.481Z,4.96
2023-10-16T14:29:05.327Z,4.94
2023-10-16T14:31:35.801Z,4.94
2023-10-16T14:34:07.190Z,4.95
2023-10-16T14:36:37.775Z,4.96
2023-10-16T14:39:06.157Z,4.93
2023-10-16T14:41:33.766Z,4.92
2023-10-16T14:44:08.450Z,4.90
2023-10-16T14:46:44.968Z,4.92
2023-10-16T14:49:13.611Z,4.89
2023-10-16T14:51:42.846Z,4.88
2023-10-16T14:54:12.476Z,4.88
2023-10-16T14:56:45.622Z,4.84
2023-10-16T14:59:36.471Z,4.86
2023-10-16T15:02:05.427Z,4.83
2023-10-16T15:04:34.379Z,4.86
2023-10-16T15:07:06.526Z,4.87
2023-10-16T15:09:35.001Z,4.86
2023-10-16T15:12:02.859Z,4.85
2023-10-16T15:14:32.175Z,4.87
2023-10-16T15:16:59.736Z,4.89
2023-10-16T15:19:30.364Z,4.90
2023-10-16T15:22:02.996Z,4.89
2023-10-16T15:24:33.440Z,4.86
2023-10-16T15:27:04.567Z,4.88
2023-10-16T15:29:32.176Z,4.86
2023-10-16T15:31:59.909Z,4.86
2023-10-16T15:34:40.279Z,4.84
2023-10-16T15:37:11.273Z,4.83
2023-10-16T15:39:40.564Z,4.78
2023-10-16T15:42:09.716Z,4.78
2023-10-16T15:44:38.332Z,4.78
2023-10-16T15:47:08.602Z,4.73
2023-10-16T15:49:37.870Z,4.68
2023-10-16T15:52:07.175Z,4.72
2023-10-16T15:54:35.865Z,4.75
2023-10-16T15:57:04.649Z,4.74
2023-10-16T15:59:33.501Z,4.72
2023-10-16T16:02:03.647Z,4.68
2023-10-16T16:04:33.895Z,4.69
2023-10-16T16:07:05.405Z,4.70
2023-10-16T16:09:34.178Z,4.69
2023-10-16T16:12:01.702Z,4.73
2023-10-16T16:14:29.651Z,4.73
2023-10-16T16:17:02.265Z,4.74
2023-10-16T16:19:30.092Z,4.75
2023-10-16T16:22:02.487Z,4.74
2023-10-16T16:24:30.244Z,4.65
2023-10-16T16:26:57.693Z,4.75
2023-10-16T16:29:26.377Z,4.78
2023-10-16T16:31:58.970Z,4.77
2023-10-16T16:34:27.640Z,4.75
2023-10-16T16:36:55.147Z,4.78
2023-10-16T16:39:22.683Z,4.81
2023-10-16T16:41:51.690Z,4.82
2023-10-16T16:44:21.335Z,4.84
2023-10-16T16:46:50.537Z,4.84
2023-10-16T16:49:18.171Z,4.87
2023-10-16T16:51:46.796Z,4.85
2023-10-16T16:54:15.349Z,4.85
2023-10-16T16:56:46.484Z,4.83
2023-10-16T16:59:18.226Z,4.85
2023-10-16T17:01:49.353Z,4.88
2023-10-16T17:04:43.464Z,4.82
2023-10-16T17:07:31.895Z,4.87
2023-10-16T17:10:02.575Z,4.85
2023-10-16T17:12:35.314Z,4.82
2023-10-16T17:15:04.420Z,4.76
2023-10-16T17:17:33.165Z,4.85
2023-10-16T17:20:01.511Z,4.91
2023-10-16T17:22:44.274Z,4.92
2023-10-16T17:25:20.785Z,4.88
2023-10-16T17:27:50.603Z,4.81
2023-10-16T17:30:19.804Z,4.87
2023-10-16T17:32:50.762Z,4.86
2023-10-16T17:35:28.793Z,4.86
2023-10-16T17:37:57.516Z,4.81
2023-10-16T17:40:26.162Z,4.81
2023-10-16T17:42:57.118Z,4.76
2023-10-16T17:45:24.882Z,4.73
2023-10-16T17:47:55.434Z,4.77
2023-10-16T17:50:25.031Z,4.66
2023-10-16T17:55:35.493Z,4.69
2023-10-16T17:58:04.775Z,4.66
2023-10-16T18:00:32.528Z,4.64
2023-10-16T18:03:00.765Z,4.71
2023-10-16T18:05:36.759Z,4.72
2023-10-16T18:08:10.577Z,4.71
2023-10-16T18:10:47.085Z,4.76
2023-10-16T18:13:14.603Z,4.77
2023-10-16T18:15:51.640Z,4.75
2023-10-16T18:18:19.830Z,4.74
2023-10-16T18:20:50.458Z,4.72
2023-10-16T18:23:19.128Z,4.66
2023-10-16T18:25:47.920Z,4.64
2023-10-16T18:28:50.152Z,4.63
2023-10-16T18:31:30.017Z,4.47
2023-10-16T18:33:57.464Z,4.52
2023-10-16T18:36:24.877Z,4.62
2023-10-16T18:38:52.328Z,4.58
2023-10-16T18:41:21.195Z,4.63
2023-10-16T18:43:51.100Z,4.62
2023-10-16T18:46:19.246Z,4.62
2023-10-16T18:48:47.058Z,4.61
2023-10-16T18:51:14.298Z,4.64
2023-10-16T18:53:46.728Z,4.61
2023-10-16T18:56:13.928Z,4.58
2023-10-16T18:58:41.461Z,4.58
2023-10-16T19:01:13.015Z,4.59
2023-10-16T19:03:40.274Z,4.61
2023-10-16T19:06:07.665Z,4.61
2023-10-16T19:08:36.148Z,4.62
2023-10-16T19:11:03.748Z,4.59
2023-10-16T19:13:31.962Z,4.56
2023-10-16T19:15:59.597Z,4.52
2023-10-16T19:18:30.835Z,4.49
2023-10-16T19:21:02.266Z,4.46
2023-10-16T19:23:32.943Z,4.43
2023-10-16T19:26:17.847Z,4.43
2023-10-16T19:28:45.930Z,4.37
2023-10-16T19:31:16.213Z,4.34
2023-10-16T19:33:44.611Z,4.29
2023-10-16T19:36:21.807Z,4.27
2023-10-16T19:38:50.994Z,4.29
2023-10-16T19:41:22.801Z,4.24
2023-10-16T19:43:54.301Z,4.18
2023-10-16T19:46:23.964Z,4.18
2023-10-16T19:48:51.275Z,4.16
2023-10-16T19:51:19.951Z,4.14
2023-10-16T19:53:48.671Z,4.16
2023-10-16T19:56:18.921Z,4.16
2023-10-16T19:58:49.626Z,4.13
2023-10-16T20:01:16.690Z,4.09
2023-10-16T20:03:50.637Z,4.07
2023-10-16T20:06:20.267Z,3.97
2023-10-16T20:08:47.892Z,4.02
2023-10-16T20:11:15.145Z,3.97
2023-10-16T20:13:47.871Z,4.04
2023-10-16T20:16:15.184Z,4.03
2023-10-16T20:18:43.523Z,3.96
2023-10-16T20:21:19.319Z,3.96
2023-10-16T20:23:48.678Z,3.97
2023-10-16T20:26:17.995Z,3.93
2023-10-16T20:28:51.458Z,3.89
2023-10-16T20:31:19.920Z,3.90
2023-10-16T20:33:49.985Z,3.91
2023-10-16T20:36:22.267Z,3.88
2023-10-16T20:38:55.993Z,3.86
2023-10-16T20:41:25.447Z,3.85
2023-10-16T20:43:58.773Z,3.82
2023-10-16T20:46:26.106Z,3.70
2023-10-16T20:48:54.179Z,3.79
2023-10-16T20:51:21.904Z,3.78
2023-10-16T20:53:48.963Z,3.77
2023-10-16T20:56:16.084Z,3.73
2023-10-16T20:58:43.173Z,3.71
2023-10-16T21:01:16.576Z,3.65
2023-10-16T21:03:43.773Z,3.63
2023-10-16T21:06:14.336Z,3.65
2023-10-16T21:08:41.489Z,3.67
2023-10-16T21:11:09.562Z,3.63
2023-10-16T21:13:37.801Z,3.62
2023-10-16T21:16:05.668Z,3.59
2023-10-16T21:18:32.753Z,3.58
2023-10-16T21:21:02.510Z,3.58
2023-10-16T21:23:29.540Z,3.58
2023-10-16T21:25:56.531Z,3.58
2023-10-16T21:28:24.198Z,3.53
2023-10-16T21:30:58.082Z,3.51
2023-10-16T21:33:25.699Z,3.51
2023-10-16T21:35:52.874Z,3.44
2023-10-16T21:38:22.815Z,3.45
2023-10-16T21:40:49.796Z,3.46
2023-10-16T21:43:16.829Z,3.46
2023-10-16T21:45:43.980Z,3.46
2023-10-16T21:48:11.292Z,3.46
2023-10-16T21:50:38.363Z,3.46
2023-10-16T21:53:06.730Z,3.41
2023-10-16T21:55:33.721Z,3.42
2023-10-16T21:58:00.765Z,3.42
2023-10-16T22:00:51.550Z,3.39
2023-10-16T22:03:18.743Z,3.34
2023-10-16T22:05:46.501Z,3.31
2023-10-16T22:08:16.548Z,3.30
2023-10-16T22:10:44.364Z,3.29
2023-10-16T22:13:12.157Z,3.32
2023-10-16T22:15:42.122Z,3.27
2023-10-16T22:18:09.370Z,3.21
2023-10-16T22:20:37.117Z,3.22
2023-10-16T22:23:05.874Z,3.21
2023-10-16T22:25:34.688Z,3.19
2023-10-16T22:28:08.513Z,3.17
2023-10-16T22:30:36.372Z,3.15
2023-10-16T22:33:03.571Z,3.13
2023-10-16T22:35:30.688Z,3.12
2023-10-16T22:37:57.735Z,3.10
2023-10-16T22:40:26.289Z,3.08
2023-10-16T22:42:54.951Z,3.03
2023-10-16T22:45:23.772Z,3.00
2023-10-16T22:47:51.860Z,2.98
2023-10-16T22:50:19.071Z,2.97
2023-10-16T22:52:46.201Z,2.94
2023-10-16T22:55:13.594Z,2.95
2023-10-16T22:57:41.864Z,2.94
2023-10-16T23:00:16.738Z,2.92
2023-10-16T23:02:44.199Z,2.90
2023-10-16T23:05:15.352Z,2.88
2023-10-16T23:07:48.004Z,2.86
2023-10-16T23:10:18.379Z,2.87
2023-10-16T23:12:47.246Z,2.83
2023-10-16T23:15:20.138Z,2.79
2023-10-16T23:17:51.914Z,2.77
2023-10-16T23:20:25.721Z,2.77
2023-10-16T23:22:54.078Z,2.73
2023-10-16T23:25:24.049Z,2.65
2023-10-16T23:27:57.451Z,2.67
2023-10-16T23:30:26.728Z,2.64
2023-10-16T23:32:54.245Z,2.62
2023-10-16T23:35:23.057Z,2.59
2023-10-16T23:37:50.509Z,2.57
2023-10-16T23:40:35.834Z,2.56
2023-10-16T23:43:12.036Z,2.54
2023-10-16T23:45:41.554Z,2.51
2023-10-16T23:48:19.842Z,2.47
2023-10-16T23:50:51.809Z,2.47
2023-10-16T23:53:32.423Z,2.45
2023-10-16T23:56:18.687Z,2.42
2023-10-16T23:58:51.638Z,2.40
